Startpagina
METAR-TAF:

METAR-TAF

Vliegvelden :

Washington, Virginia, Verenigde Staten

Washington Dulles International Airport

breedte: 38-56-05N, lengte: 077-26-51W, hoogte: 95 m

Actueel weer

Dit bericht is 1 uur en het 4 minuten geleden gemaakt, om 19:52 UTC
Wind 5 kt uit het zuiden
Temperatuur 27°C
Vochtigheid 30%
Druk 1021 hPa
Zicht: 16.1 km
Verspreide wolken op 6500 ft
Gebroken wolken op 25000 ft

METAR: KIAD 281952Z 18005KT 10SM SCT065 BKN250 27/08 A3016 RMK AO2 SLP211 T02670078

Tijdstip: 16:56 (20:56 UTC)

Verwachting

Dit bericht is 11 minuten geleden gemaakt, om 20:45 UTC
Verwachting geldig van 28 om 21 UTC tot 29 om 24 UTC
Wind 5 kt uit het zuidwesten
Zicht: 10 km
Weinig wolken op 6000 ft
Van 29 om 0000 UTC
Wind 6 kt uit het zuiden
Zicht: 10 km
Weinig wolken op 6000 ft
Van 29 om 1400 UTC
Wind 9 kt uit het zuidzuidwesten
Zicht: 10 km
Weinig wolken op 25000 ft

TAF: KIAD 282045Z 2821/2924 23005KT P6SM FEW060 FM290000 17006KT P6SM FEW060 FM291400 21009KT P6SM FEW250

Waarnemingen en weersverwachtingen van meer dan 4000 vliegvelden (METAR en TAF).

De beschikbare stations zijn de gele en rode punten op de kaart.

Ga met uw muis naar het station om de naam te zien.

Klik dan om waarnemingen en weersverwachtingen te zien.

kaart wijzigen: klik op de groene knoppen met een zwart kruis om in te zoomen, op de groene knop met een streepje om uit te zoomen of op de groene pijlen voor aangrenzende kaarten.


METAR-TAF: